Morton, Minnesota
Current Conditions -  °F | °C
As of 9:53 PM on Tuesday 21 Oct 2014 (Local Time) from KRWF Reporting Station
Clear Clear  
Wind Chill: 51°   Ceiling: Unl
Heat Index: 51°   Visibility: 10mi
Dew Point: 40°   Wind: 13mph
Humidity: 66%   Direction: 140°SE
Pressure: 30.08"   Gusts: NA
Location:  44.55°N, 94.98°W
Report Text: KRWF 220253Z AUTO 14011KT 10SM CLR 11/04 A3008 RMK AO2 SLP190 T01060044 51012
Loading
Personal Weather Stations






























Interactive Weather Map
Tropical Storm Tracking
New forecast layout! Learn more

10-Day Weather Forecast

Advertisements
Track Severe Weather on mobile